createdAt,value
2023-04-02T00:01:00.869Z,85.28
2023-04-02T00:03:42.313Z,84.15
2023-04-02T00:06:40.280Z,82.81
2023-04-02T00:09:13.492Z,84.88
2023-04-02T00:11:44.898Z,87.45
2023-04-02T00:14:27.077Z,87.65
2023-04-02T00:16:55.944Z,86.71
2023-04-02T00:19:46.051Z,88.04
2023-04-02T00:22:16.115Z,88.37
2023-04-02T00:24:43.254Z,87.19
2023-04-02T00:27:13.924Z,86.94
2023-04-02T00:29:45.479Z,87.27
2023-04-02T00:32:17.463Z,86.69
2023-04-02T00:34:45.340Z,86.10
2023-04-02T00:37:18.350Z,86.85
2023-04-02T00:39:46.059Z,87.87
2023-04-02T00:42:13.323Z,87.35
2023-04-02T00:44:42.833Z,86.02
2023-04-02T00:47:17.138Z,85.69
2023-04-02T00:49:45.420Z,88.00
2023-04-02T00:52:14.563Z,88.15
2023-04-02T00:55:02.428Z,88.05
2023-04-02T00:57:29.803Z,88.58
2023-04-02T00:59:59.117Z,88.23
2023-04-02T01:02:28.566Z,88.51
2023-04-02T01:05:05.703Z,89.49
2023-04-02T01:07:32.985Z,89.07
2023-04-02T01:10:19.098Z,90.31
2023-04-02T01:12:49.534Z,88.71
2023-04-02T01:15:30.523Z,89.22
2023-04-02T01:18:06.467Z,89.47
2023-04-02T01:20:33.880Z,90.26
2023-04-02T01:23:18.221Z,90.33
2023-04-02T01:25:50.940Z,90.01
2023-04-02T01:28:33.724Z,90.52
2023-04-02T01:31:02.543Z,92.88
2023-04-02T01:33:32.350Z,93.41
2023-04-02T01:36:07.043Z,93.67
2023-04-02T01:38:38.555Z,94.66
2023-04-02T01:41:09.710Z,94.62
2023-04-02T01:43:42.921Z,95.68
2023-04-02T01:46:32.655Z,95.55
2023-04-02T01:49:02.379Z,96.12
2023-04-02T01:51:34.152Z,97.05
2023-04-02T01:54:06.151Z,96.73
2023-04-02T01:56:34.239Z,96.98
2023-04-02T01:59:03.747Z,97.23
2023-04-02T02:01:40.627Z,96.21
2023-04-02T02:04:11.796Z,96.47
2023-04-02T02:06:39.035Z,97.35
2023-04-02T02:09:07.481Z,97.39
2023-04-02T02:11:36.521Z,98.53
2023-04-02T02:14:22.077Z,97.77
2023-04-02T02:16:50.008Z,98.04
2023-04-02T02:19:27.222Z,97.83
2023-04-02T02:22:08.307Z,97.03
2023-04-02T02:24:37.153Z,96.63
2023-04-02T02:27:04.245Z,95.85
2023-04-02T02:29:35.404Z,96.34
2023-04-02T02:32:03.198Z,97.04
2023-04-02T02:34:36.282Z,96.19
2023-04-02T02:37:12.769Z,97.29
2023-04-02T02:39:42.991Z,97.11
2023-04-02T02:42:14.464Z,96.90
2023-04-02T02:44:44.538Z,95.39
2023-04-02T02:47:14.744Z,95.21
2023-04-02T02:49:43.476Z,96.23
2023-04-02T02:52:19.246Z,94.29
2023-04-02T02:54:58.261Z,93.53
2023-04-02T02:57:31.005Z,93.48
2023-04-02T03:00:00.675Z,94.24
2023-04-02T03:02:29.144Z,95.03
2023-04-02T03:04:58.411Z,93.31
2023-04-02T03:07:28.223Z,93.05
2023-04-02T03:10:12.433Z,95.89
2023-04-02T03:12:40.345Z,95.29
2023-04-02T03:15:07.609Z,95.91
2023-04-02T03:17:39.699Z,96.37
2023-04-02T03:20:14.593Z,95.95
2023-04-02T03:22:46.003Z,97.15
2023-04-02T03:25:19.329Z,97.61
2023-04-02T03:27:47.795Z,97.06
2023-04-02T03:30:33.803Z,97.80
2023-04-02T03:33:09.348Z,97.99
2023-04-02T03:35:47.969Z,97.61
2023-04-02T03:38:25.758Z,97.41
2023-04-02T03:41:01.346Z,98.60
2023-04-02T03:43:33.508Z,98.35
2023-04-02T03:46:23.290Z,97.67
2023-04-02T03:48:53.975Z,97.79
2023-04-02T03:51:44.140Z,97.80
2023-04-02T03:54:14.154Z,98.07
2023-04-02T03:56:41.476Z,97.64
2023-04-02T03:59:16.555Z,98.38
2023-04-02T04:01:49.060Z,98.73
2023-04-02T04:04:18.085Z,98.31
2023-04-02T04:06:46.391Z,97.29
2023-04-02T04:09:20.489Z,98.77
2023-04-02T04:11:52.816Z,100.00
2023-04-02T04:14:33.467Z,99.78
2023-04-02T04:17:17.327Z,100.00
2023-04-02T04:19:45.572Z,100.00
2023-04-02T04:22:17.845Z,99.83
2023-04-02T04:24:47.360Z,98.24
2023-04-02T04:27:49.064Z,96.38
2023-04-02T04:30:25.276Z,97.11
2023-04-02T04:32:58.294Z,97.37
2023-04-02T04:35:45.515Z,96.99
2023-04-02T04:38:27.850Z,95.87
2023-04-02T04:40:59.600Z,96.41
2023-04-02T04:43:33.543Z,96.66
2023-04-02T04:46:05.609Z,96.40
2023-04-02T04:48:53.031Z,96.12
2023-04-02T04:51:24.643Z,95.16
2023-04-02T04:53:53.493Z,95.65
2023-04-02T04:56:27.779Z,96.92
2023-04-02T04:59:03.572Z,96.82
2023-04-02T05:01:46.479Z,97.71
2023-04-02T05:04:19.529Z,98.66
2023-04-02T05:06:53.216Z,98.66
2023-04-02T05:09:30.003Z,97.69
2023-04-02T05:12:03.541Z,96.93
2023-04-02T05:14:50.467Z,97.31
2023-04-02T05:17:28.463Z,98.04
2023-04-02T05:20:16.391Z,97.37
2023-04-02T05:22:56.042Z,97.17
2023-04-02T05:25:24.474Z,98.34
2023-04-02T05:27:55.574Z,97.49
2023-04-02T05:30:22.670Z,98.18
2023-04-02T05:33:00.600Z,98.68
2023-04-02T05:35:32.784Z,100.00
2023-04-02T05:38:01.860Z,100.00
2023-04-02T05:40:39.524Z,100.00
2023-04-02T05:43:11.132Z,100.00
2023-04-02T05:45:44.302Z,100.00
2023-04-02T05:48:18.984Z,100.00
2023-04-02T05:50:51.647Z,100.00
2023-04-02T05:53:28.266Z,100.00
2023-04-02T05:55:58.753Z,100.00
2023-04-02T05:58:46.306Z,100.00
2023-04-02T06:02:03.094Z,100.00
2023-04-02T06:04:47.315Z,100.00
2023-04-02T06:07:16.606Z,100.00
2023-04-02T06:09:54.484Z,100.00
2023-04-02T06:12:22.492Z,100.00
2023-04-02T06:14:49.832Z,100.00
2023-04-02T06:17:18.397Z,100.00
2023-04-02T06:19:47.857Z,100.00
2023-04-02T06:22:24.195Z,100.00
2023-04-02T06:24:59.588Z,100.00
2023-04-02T06:27:28.335Z,100.00
2023-04-02T06:30:02.722Z,100.00
2023-04-02T06:32:31.516Z,100.00
2023-04-02T06:34:58.906Z,99.74
2023-04-02T06:37:31.562Z,100.00
2023-04-02T06:40:34.047Z,100.00
2023-04-02T06:43:42.758Z,100.00
2023-04-02T06:46:29.020Z,100.00
2023-04-02T06:49:18.473Z,99.91
2023-04-02T06:51:48.461Z,98.61
2023-04-02T06:54:16.480Z,98.94
2023-04-02T06:56:47.463Z,99.06
2023-04-02T06:59:20.730Z,99.83
2023-04-02T07:01:51.478Z,99.86
2023-04-02T07:04:19.787Z,98.70
2023-04-02T07:06:48.156Z,99.82
2023-04-02T07:09:17.003Z,100.00
2023-04-02T07:11:48.787Z,100.00
2023-04-02T07:14:17.980Z,98.64
2023-04-02T07:16:45.961Z,96.56
2023-04-02T07:19:17.923Z,96.58
2023-04-02T07:21:45.493Z,97.06
2023-04-02T07:24:13.061Z,97.52
2023-04-02T07:26:40.622Z,98.27
2023-04-02T07:29:08.318Z,98.78
2023-04-02T07:31:37.978Z,99.23
2023-04-02T07:34:05.443Z,100.00
2023-04-02T07:36:32.559Z,99.51
2023-04-02T07:38:59.714Z,100.00
2023-04-02T07:41:27.684Z,100.00
2023-04-02T07:43:54.977Z,100.00
2023-04-02T07:46:22.298Z,99.84
2023-04-02T07:48:49.588Z,98.76
2023-04-02T07:51:21.114Z,98.34
2023-04-02T07:53:54.954Z,98.54
2023-04-02T07:56:23.441Z,97.58
2023-04-02T07:58:50.938Z,98.44
2023-04-02T08:01:20.832Z,96.85
2023-04-02T08:03:48.115Z,97.34
2023-04-02T08:06:15.353Z,97.55
2023-04-02T08:08:42.551Z,98.11
2023-04-02T08:11:10.475Z,98.01
2023-04-02T08:13:37.627Z,98.97
2023-04-02T08:16:05.640Z,98.40
2023-04-02T08:18:32.788Z,97.85
2023-04-02T08:21:00.131Z,97.72
2023-04-02T08:23:27.882Z,98.34
2023-04-02T08:25:55.229Z,97.70
2023-04-02T08:28:23.021Z,98.99
2023-04-02T08:30:51.309Z,98.65
2023-04-02T08:33:18.958Z,95.75
2023-04-02T08:35:46.693Z,96.42
2023-04-02T08:38:15.456Z,96.05
2023-04-02T08:40:44.070Z,97.29
2023-04-02T08:43:29.479Z,100.00
2023-04-02T08:46:07.550Z,100.00
2023-04-02T08:48:36.436Z,100.00
2023-04-02T08:51:04.925Z,100.00
2023-04-02T08:53:37.510Z,100.00
2023-04-02T08:56:34.219Z,100.00
2023-04-02T08:59:03.357Z,100.00
2023-04-02T09:01:36.889Z,100.00
2023-04-02T09:04:06.985Z,100.00
2023-04-02T09:06:34.719Z,100.00
2023-04-02T09:09:02.115Z,100.00
2023-04-02T09:11:47.799Z,100.00
2023-04-02T09:14:24.547Z,100.00
2023-04-02T09:16:53.810Z,100.00
2023-04-02T09:19:22.967Z,100.00
2023-04-02T09:21:57.041Z,100.00
2023-04-02T09:24:24.100Z,100.00
2023-04-02T09:26:51.249Z,100.00
2023-04-02T09:29:40.231Z,100.00
2023-04-02T09:32:18.370Z,100.00
2023-04-02T09:34:45.594Z,99.45
2023-04-02T09:37:25.419Z,94.00
2023-04-02T09:40:01.112Z,89.57
2023-04-02T09:42:34.186Z,88.33
2023-04-02T09:45:15.703Z,82.30
2023-04-02T09:47:43.007Z,87.17
2023-04-02T09:50:13.865Z,87.47
2023-04-02T09:52:41.036Z,92.01
2023-04-02T09:55:17.299Z,94.25
2023-04-02T09:57:45.754Z,87.91
2023-04-02T10:00:29.817Z,86.19
2023-04-02T10:03:03.728Z,85.66
2023-04-02T10:05:40.544Z,86.19
2023-04-02T10:08:16.733Z,91.61
2023-04-02T10:10:46.880Z,93.91
2023-04-02T10:13:13.981Z,93.28
2023-04-02T10:15:41.091Z,87.91
2023-04-02T10:18:13.140Z,86.19
2023-04-02T10:20:50.447Z,78.70
2023-04-02T10:23:19.398Z,71.31
2023-04-02T10:25:53.577Z,71.62
2023-04-02T10:28:38.449Z,64.76
2023-04-02T10:31:13.035Z,59.45
2023-04-02T10:33:41.985Z,57.88
2023-04-02T10:36:11.397Z,56.54
2023-04-02T10:38:42.586Z,58.39
2023-04-02T10:41:22.563Z,65.50
2023-04-02T10:43:57.819Z,69.08
2023-04-02T10:46:35.588Z,68.69
2023-04-02T10:49:12.314Z,69.63
2023-04-02T10:51:57.679Z,65.16
2023-04-02T10:54:30.675Z,58.14
2023-04-02T10:57:01.952Z,51.81
2023-04-02T10:59:37.366Z,51.65
2023-04-02T11:02:15.942Z,53.26
2023-04-02T11:04:46.120Z,50.65
2023-04-02T11:07:24.861Z,48.46
2023-04-02T11:09:53.482Z,45.02
2023-04-02T11:12:27.464Z,46.58
2023-04-02T11:14:56.194Z,48.91
2023-04-02T11:17:23.949Z,46.38
2023-04-02T11:19:51.190Z,46.91
2023-04-02T11:22:22.854Z,46.20
2023-04-02T11:24:51.213Z,44.95
2023-04-02T11:27:22.533Z,47.10
2023-04-02T11:30:09.013Z,49.07
2023-04-02T11:32:39.197Z,53.33
2023-04-02T11:35:25.927Z,55.10
2023-04-02T11:37:54.447Z,53.93
2023-04-02T11:40:40.420Z,57.13
2023-04-02T11:43:26.243Z,60.51
2023-04-02T11:45:55.196Z,53.52
2023-04-02T11:48:22.637Z,52.36
2023-04-02T11:50:49.974Z,59.37
2023-04-02T11:53:17.405Z,68.02
2023-04-02T11:56:04.854Z,70.64
2023-04-02T11:58:38.060Z,71.27
2023-04-02T12:01:05.311Z,71.62
2023-04-02T12:03:32.526Z,72.78
2023-04-02T12:06:10.749Z,73.71
2023-04-02T12:08:47.243Z,74.25
2023-04-02T12:11:18.093Z,76.30
2023-04-02T12:13:48.891Z,76.77
2023-04-02T12:16:16.906Z,77.46
2023-04-02T12:18:48.074Z,78.97
2023-04-02T12:21:19.222Z,78.88
2023-04-02T12:23:47.860Z,76.80
2023-04-02T12:26:27.406Z,76.01
2023-04-02T12:28:56.384Z,75.42
2023-04-02T12:31:25.400Z,74.61
2023-04-02T12:33:53.116Z,73.94
2023-04-02T12:36:21.570Z,73.28
2023-04-02T12:38:48.743Z,73.79
2023-04-02T12:41:21.514Z,72.63
2023-04-02T12:43:56.289Z,71.97
2023-04-02T12:46:25.942Z,70.55
2023-04-02T12:48:54.420Z,68.24
2023-04-02T12:51:21.765Z,66.32
2023-04-02T12:53:50.463Z,62.58
2023-04-02T12:56:21.622Z,60.96
2023-04-02T12:58:53.479Z,60.60
2023-04-02T13:01:23.698Z,58.12
2023-04-02T13:04:07.270Z,55.57
2023-04-02T13:06:35.223Z,54.69
2023-04-02T13:09:03.688Z,56.92
2023-04-02T13:11:35.707Z,56.02
2023-04-02T13:14:03.776Z,54.13
2023-04-02T13:16:35.579Z,53.41
2023-04-02T13:19:10.597Z,49.78
2023-04-02T13:21:38.329Z,46.82
2023-04-02T13:24:05.700Z,44.43
2023-04-02T13:26:33.752Z,46.84
2023-04-02T13:29:02.732Z,48.10
2023-04-02T13:31:30.991Z,47.70
2023-04-02T13:33:58.408Z,46.56
2023-04-02T13:36:28.325Z,46.58
2023-04-02T13:38:56.081Z,46.88
2023-04-02T13:41:27.765Z,43.71
2023-04-02T13:43:55.525Z,44.11
2023-04-02T13:46:26.785Z,46.23
2023-04-02T13:48:54.892Z,42.93
2023-04-02T13:51:31.841Z,42.35
2023-04-02T13:53:59.298Z,43.43
2023-04-02T13:56:27.109Z,41.19
2023-04-02T13:58:54.346Z,41.15
2023-04-02T14:01:23.430Z,44.92
2023-04-02T14:03:53.103Z,42.31
2023-04-02T14:06:23.853Z,39.01
2023-04-02T14:09:02.802Z,38.31
2023-04-02T14:11:33.119Z,40.47
2023-04-02T14:14:00.559Z,39.37
2023-04-02T14:16:49.513Z,39.17
2023-04-02T14:19:34.685Z,37.42
2023-04-02T14:22:20.151Z,37.98
2023-04-02T14:25:06.213Z,36.76
2023-04-02T14:27:55.993Z,36.48
2023-04-02T14:30:30.981Z,36.68
2023-04-02T14:32:59.244Z,37.07
2023-04-02T14:35:33.898Z,38.43
2023-04-02T14:38:01.481Z,38.05
2023-04-02T14:40:42.247Z,37.14
2023-04-02T14:43:12.354Z,38.25
2023-04-02T14:45:57.904Z,35.72
2023-04-02T14:48:41.843Z,35.25
2023-04-02T14:51:12.102Z,36.56
2023-04-02T14:53:59.491Z,36.95
2023-04-02T14:56:26.768Z,38.31
2023-04-02T14:59:23.327Z,38.95
2023-04-02T15:01:54.426Z,39.67
2023-04-02T15:04:36.879Z,39.07
2023-04-02T15:07:07.814Z,40.24
2023-04-02T15:09:38.789Z,40.47
2023-04-02T15:12:12.572Z,42.20
2023-04-02T15:14:43.818Z,42.25
2023-04-02T15:17:12.133Z,42.53
2023-04-02T15:19:40.146Z,41.95
2023-04-02T15:22:22.376Z,42.61
2023-04-02T15:25:07.967Z,42.51
2023-04-02T15:27:37.992Z,42.49
2023-04-02T15:30:11.022Z,41.91
2023-04-02T15:32:39.725Z,42.84
2023-04-02T15:35:06.817Z,42.65
2023-04-02T15:37:46.585Z,43.40
2023-04-02T15:40:35.865Z,43.13
2023-04-02T15:43:12.115Z,41.17
2023-04-02T15:45:48.924Z,46.62
2023-04-02T15:48:27.078Z,44.05
2023-04-02T15:50:58.263Z,44.43
2023-04-02T15:53:31.172Z,42.47
2023-04-02T15:56:18.612Z,43.95
2023-04-02T15:58:52.019Z,42.61
2023-04-02T16:01:22.158Z,42.87
2023-04-02T16:04:16.910Z,43.07
2023-04-02T16:07:01.004Z,43.65
2023-04-02T16:09:47.749Z,42.82
2023-04-02T16:12:16.322Z,43.21
2023-04-02T16:14:45.788Z,44.72
2023-04-02T16:17:25.706Z,45.57
2023-04-02T16:19:56.482Z,44.20
2023-04-02T16:22:29.040Z,44.03
2023-04-02T16:24:59.001Z,42.84
2023-04-02T16:27:26.177Z,42.99
2023-04-02T16:29:56.960Z,45.12
2023-04-02T16:32:40.731Z,44.91
2023-04-02T16:35:43.875Z,45.40
2023-04-02T16:38:21.302Z,46.54
2023-04-02T16:41:09.077Z,44.95
2023-04-02T16:44:00.831Z,45.72
2023-04-02T16:46:41.013Z,45.96
2023-04-02T16:49:26.593Z,45.33
2023-04-02T16:52:07.983Z,45.94
2023-04-02T16:54:38.196Z,46.37
2023-04-02T16:57:17.335Z,46.79
2023-04-02T17:00:00.944Z,46.11
2023-04-02T17:02:37.404Z,45.83
2023-04-02T17:05:32.698Z,45.63
2023-04-02T17:08:05.969Z,45.66
2023-04-02T17:10:53.869Z,46.04
2023-04-02T17:13:26.173Z,46.69
2023-04-02T17:16:13.967Z,46.14
2023-04-02T17:18:42.309Z,47.00
2023-04-02T17:21:12.939Z,46.23
2023-04-02T17:23:56.623Z,46.13
2023-04-02T17:26:32.677Z,46.44
2023-04-02T17:29:01.643Z,46.97
2023-04-02T17:31:34.346Z,47.13
2023-04-02T17:34:09.908Z,47.04
2023-04-02T17:36:38.129Z,47.32
2023-04-02T17:39:08.115Z,48.11
2023-04-02T17:41:49.581Z,48.64
2023-04-02T17:44:24.717Z,49.13
2023-04-02T17:47:01.585Z,48.96
2023-04-02T17:49:37.825Z,48.86
2023-04-02T17:52:15.980Z,50.38
2023-04-02T17:54:57.689Z,52.15
2023-04-02T17:57:37.359Z,52.89
2023-04-02T18:00:16.683Z,53.83
2023-04-02T18:02:46.749Z,53.78
2023-04-02T18:05:31.036Z,55.59
2023-04-02T18:08:21.696Z,58.44
2023-04-02T18:11:01.654Z,61.82
2023-04-02T18:13:52.135Z,62.14
2023-04-02T18:16:22.182Z,64.18
2023-04-02T18:18:52.297Z,64.91
2023-04-02T18:21:48.610Z,66.79
2023-04-02T18:24:22.193Z,67.97
2023-04-02T18:26:49.537Z,70.72
2023-04-02T18:29:16.736Z,70.04
2023-04-02T18:31:51.692Z,72.09
2023-04-02T18:34:21.919Z,71.94
2023-04-02T18:36:51.955Z,72.13
2023-04-02T18:39:37.677Z,72.34
2023-04-02T18:42:23.409Z,74.19
2023-04-02T18:44:58.851Z,74.73
2023-04-02T18:47:46.474Z,74.56
2023-04-02T18:50:25.868Z,75.79
2023-04-02T18:52:55.683Z,76.17
2023-04-02T18:55:28.066Z,76.74
2023-04-02T18:58:06.944Z,76.55
2023-04-02T19:00:40.143Z,78.09
2023-04-02T19:03:08.158Z,78.04
2023-04-02T19:05:36.123Z,77.69
2023-04-02T19:08:09.536Z,77.46
2023-04-02T19:10:43.701Z,77.56
2023-04-02T19:13:16.973Z,76.52
2023-04-02T19:16:04.536Z,77.10
2023-04-02T19:18:44.994Z,79.08
2023-04-02T19:21:25.419Z,79.96
2023-04-02T19:24:11.984Z,80.75
2023-04-02T19:26:47.015Z,79.80
2023-04-02T19:29:21.768Z,79.28
2023-04-02T19:32:00.029Z,80.44
2023-04-02T19:34:39.594Z,79.55
2023-04-02T19:37:37.769Z,80.75
2023-04-02T19:40:08.609Z,81.26
2023-04-02T19:42:43.856Z,81.66
2023-04-02T19:45:27.511Z,82.81
2023-04-02T19:48:01.660Z,81.48
2023-04-02T19:50:29.500Z,82.11
2023-04-02T19:52:58.753Z,81.80
2023-04-02T19:55:45.485Z,80.98
2023-04-02T19:58:26.076Z,83.18
2023-04-02T20:00:55.856Z,80.46
2023-04-02T20:03:24.403Z,82.04
2023-04-02T20:05:51.657Z,80.62
2023-04-02T20:08:18.966Z,78.63
2023-04-02T20:10:46.262Z,79.43
2023-04-02T20:13:13.762Z,78.53
2023-04-02T20:15:45.014Z,78.18
2023-04-02T20:18:14.520Z,75.67
2023-04-02T20:20:48.771Z,76.72
2023-04-02T20:23:18.629Z,74.84
2023-04-02T20:25:54.565Z,78.35
2023-04-02T20:28:23.080Z,80.36
2023-04-02T20:30:51.417Z,79.25
2023-04-02T20:33:22.747Z,80.93
2023-04-02T20:35:50.840Z,80.11
2023-04-02T20:38:18.376Z,75.76
2023-04-02T20:40:52.520Z,73.25
2023-04-02T20:43:25.889Z,76.55
2023-04-02T20:45:58.782Z,76.65
2023-04-02T20:48:32.493Z,77.96
2023-04-02T20:51:00.646Z,80.76
2023-04-02T20:53:31.669Z,79.01
2023-04-02T20:56:02.753Z,75.20
2023-04-02T20:58:29.887Z,74.08
2023-04-02T21:01:05.648Z,73.67
2023-04-02T21:03:32.777Z,77.36
2023-04-02T21:05:59.968Z,78.50
2023-04-02T21:08:27.269Z,79.99
2023-04-02T21:11:01.019Z,79.29
2023-04-02T21:13:30.015Z,79.70
2023-04-02T21:15:58.214Z,78.88
2023-04-02T21:18:25.465Z,78.02
2023-04-02T21:20:59.598Z,75.38
2023-04-02T21:23:27.142Z,73.71
2023-04-02T21:26:06.237Z,72.27
2023-04-02T21:28:34.386Z,70.73
2023-04-02T21:31:12.526Z,70.84
2023-04-02T21:33:40.941Z,70.65
2023-04-02T21:36:09.921Z,71.12
2023-04-02T21:38:38.513Z,70.31
2023-04-02T21:41:16.796Z,68.25
2023-04-02T21:43:44.364Z,68.36
2023-04-02T21:46:11.863Z,69.08
2023-04-02T21:48:40.651Z,72.17
2023-04-02T21:51:09.528Z,74.06
2023-04-02T21:53:36.925Z,76.57
2023-04-02T21:56:08.522Z,75.63
2023-04-02T21:58:36.083Z,76.67
2023-04-02T22:01:05.493Z,74.88
2023-04-02T22:03:35.239Z,72.80
2023-04-02T22:06:02.437Z,71.05
2023-04-02T22:08:29.589Z,71.27
2023-04-02T22:10:56.675Z,71.92
2023-04-02T22:18:58.289Z,71.26
2023-04-02T22:21:25.655Z,74.19
2023-04-02T22:23:53.410Z,74.82
2023-04-02T22:26:21.500Z,74.26
2023-04-02T22:28:48.939Z,73.81
2023-04-02T22:31:17.461Z,74.21
2023-04-02T22:33:45.104Z,74.38
2023-04-02T22:36:12.722Z,76.59
2023-04-02T22:38:39.847Z,75.94
2023-04-02T22:41:17.297Z,77.37
2023-04-02T22:44:03.293Z,77.46
2023-04-02T22:46:30.708Z,77.98
2023-04-02T22:48:58.277Z,78.93
2023-04-02T22:54:12.275Z,79.66
2023-04-02T22:56:39.513Z,79.53
2023-04-02T22:59:06.691Z,78.72
2023-04-02T23:01:35.385Z,78.65
2023-04-02T23:04:20.820Z,83.57
2023-04-02T23:06:48.000Z,82.74
2023-04-02T23:09:15.291Z,83.64
2023-04-02T23:11:42.380Z,86.46
2023-04-02T23:14:27.931Z,84.54
2023-04-02T23:16:55.502Z,84.01
2023-04-02T23:19:22.769Z,82.89
2023-04-02T23:21:49.904Z,85.69
2023-04-02T23:24:17.613Z,87.14
2023-04-02T23:26:44.722Z,88.13
2023-04-02T23:29:11.852Z,84.71
2023-04-02T23:31:38.961Z,87.18
2023-04-02T23:34:06.190Z,86.34
2023-04-02T23:36:34.407Z,86.56
2023-04-02T23:39:09.258Z,83.75
2023-04-02T23:41:37.459Z,82.53
2023-04-02T23:44:04.895Z,81.56
2023-04-02T23:46:32.558Z,79.95
2023-04-02T23:49:00.550Z,80.46
2023-04-02T23:51:28.484Z,79.68
2023-04-02T23:53:56.296Z,78.47
2023-04-02T23:56:24.220Z,78.65
2023-04-02T23:58:51.750Z,80.15
